createdAt,value
2022-12-23T00:02:38.677Z,22.20
2022-12-23T00:05:42.053Z,22.70
2022-12-23T00:08:45.399Z,23.27
2022-12-23T00:12:11.487Z,22.92
2022-12-23T00:15:15.061Z,23.08
2022-12-23T00:18:18.637Z,22.23
2022-12-23T00:21:24.016Z,23.02
2022-12-23T00:24:27.312Z,23.30
2022-12-23T00:27:37.196Z,25.17
2022-12-23T00:30:51.419Z,22.80
2022-12-23T00:33:54.547Z,23.27
2022-12-23T00:36:57.867Z,25.33
2022-12-23T00:40:19.322Z,25.08
2022-12-23T00:43:22.769Z,23.15
2022-12-23T00:46:25.836Z,25.30
2022-12-23T00:49:45.315Z,26.08
2022-12-23T00:52:48.310Z,24.98
2022-12-23T00:55:52.871Z,24.43
2022-12-23T00:58:55.965Z,24.45
2022-12-23T01:02:17.860Z,24.92
2022-12-23T01:05:36.665Z,24.23
2022-12-23T01:08:40.069Z,23.55
2022-12-23T01:11:43.468Z,24.35
2022-12-23T01:14:46.713Z,21.62
2022-12-23T01:17:49.654Z,22.45
2022-12-23T01:20:52.912Z,21.62
2022-12-23T01:23:55.916Z,21.77
2022-12-23T01:26:59.778Z,19.37
2022-12-23T01:30:02.749Z,18.37
2022-12-23T01:33:06.012Z,17.33
2022-12-23T01:36:10.708Z,17.08
2022-12-23T01:39:13.919Z,17.92
2022-12-23T01:42:38.106Z,23.23
2022-12-23T01:45:41.594Z,19.70
2022-12-23T01:48:49.740Z,22.33
2022-12-23T01:51:53.129Z,21.95
2022-12-23T01:54:56.631Z,22.35
2022-12-23T01:58:35.104Z,21.80
2022-12-23T02:01:57.175Z,20.98
2022-12-23T02:05:00.860Z,21.45
2022-12-23T02:08:22.532Z,19.90
2022-12-23T02:11:39.443Z,16.33
2022-12-23T02:15:35.560Z,19.98
2022-12-23T02:18:50.822Z,20.70
2022-12-23T02:22:03.509Z,19.98
2022-12-23T02:25:22.593Z,19.73
2022-12-23T02:29:03.215Z,18.42
2022-12-23T02:32:28.679Z,19.05
2022-12-23T02:36:05.614Z,21.50
2022-12-23T02:39:22.788Z,19.98
2022-12-23T02:42:33.803Z,20.60
2022-12-23T02:46:00.913Z,21.08
2022-12-23T02:49:08.143Z,21.10
2022-12-23T02:52:15.630Z,18.98
2022-12-23T02:55:24.596Z,19.77
2022-12-23T02:58:31.947Z,20.35
2022-12-23T03:01:35.213Z,18.02
2022-12-23T03:04:40.563Z,18.23
2022-12-23T03:07:43.979Z,18.90
2022-12-23T03:11:02.859Z,17.95
2022-12-23T03:14:08.770Z,17.73
2022-12-23T03:17:28.366Z,17.23
2022-12-23T03:20:45.922Z,16.75
2022-12-23T03:24:05.358Z,17.55
2022-12-23T03:27:32.469Z,17.42
2022-12-23T03:30:38.288Z,17.62
2022-12-23T03:33:43.898Z,15.65
2022-12-23T03:36:50.534Z,15.95
2022-12-23T03:39:57.992Z,13.25
2022-12-23T03:43:23.448Z,11.82
2022-12-23T03:46:32.635Z,13.60
2022-12-23T03:49:40.468Z,13.88
2022-12-23T03:52:49.209Z,11.25
2022-12-23T03:55:56.696Z,14.32
2022-12-23T03:59:22.103Z,14.80
2022-12-23T04:02:36.645Z,14.20
2022-12-23T04:05:42.114Z,17.27
2022-12-23T04:08:47.824Z,14.15
2022-12-23T04:11:51.650Z,14.80
2022-12-23T04:14:54.719Z,15.73
2022-12-23T04:17:58.809Z,15.50
2022-12-23T04:21:01.818Z,17.62
2022-12-23T04:24:05.329Z,15.90
2022-12-23T04:27:11.137Z,15.80
2022-12-23T04:30:14.934Z,18.25
2022-12-23T04:33:17.873Z,18.20
2022-12-23T04:36:21.095Z,19.33
2022-12-23T04:39:24.248Z,20.42
2022-12-23T04:42:27.570Z,20.08
2022-12-23T04:45:30.424Z,22.40
2022-12-23T04:48:33.539Z,20.08
2022-12-23T04:51:36.527Z,21.80
2022-12-23T04:54:46.063Z,23.62
2022-12-23T04:57:49.470Z,21.58
2022-12-23T05:01:07.819Z,22.10
2022-12-23T05:04:11.232Z,21.87
2022-12-23T05:07:14.513Z,22.37
2022-12-23T05:10:17.549Z,22.55
2022-12-23T05:13:20.810Z,21.55
2022-12-23T05:16:24.082Z,21.62
2022-12-23T05:19:27.486Z,22.70
2022-12-23T05:22:31.690Z,22.37
2022-12-23T05:25:37.557Z,22.57
2022-12-23T05:28:40.623Z,22.00
2022-12-23T05:31:44.992Z,21.52
2022-12-23T05:34:47.927Z,22.27
2022-12-23T05:37:51.671Z,22.50
2022-12-23T05:40:54.833Z,21.90
2022-12-23T05:43:57.993Z,22.65
2022-12-23T05:47:01.085Z,22.52
2022-12-23T05:50:04.915Z,19.35
2022-12-23T05:53:08.425Z,18.83
2022-12-23T05:56:12.088Z,20.12
2022-12-23T05:59:14.983Z,19.92
2022-12-23T06:02:18.660Z,20.50
2022-12-23T06:05:22.490Z,17.58
2022-12-23T06:08:25.981Z,19.85
2022-12-23T06:11:30.979Z,18.12
2022-12-23T06:14:33.927Z,17.37
2022-12-23T06:17:38.519Z,18.17
2022-12-23T06:20:41.508Z,21.33
2022-12-23T06:23:44.757Z,19.50
2022-12-23T06:26:51.890Z,19.48
2022-12-23T06:29:58.262Z,20.08
2022-12-23T06:33:01.160Z,19.45
2022-12-23T06:36:04.966Z,19.33
2022-12-23T06:39:09.467Z,19.52
2022-12-23T06:42:12.727Z,20.30
2022-12-23T06:45:15.748Z,20.25
2022-12-23T06:48:19.041Z,19.33
2022-12-23T06:51:22.090Z,19.87
2022-12-23T06:54:25.347Z,22.17
2022-12-23T06:57:28.290Z,24.87
2022-12-23T07:00:31.892Z,19.73
2022-12-23T07:03:36.485Z,20.60
2022-12-23T07:06:41.241Z,21.37
2022-12-23T07:09:44.484Z,20.75
2022-12-23T07:12:50.942Z,20.70
2022-12-23T07:15:54.175Z,22.23
2022-12-23T07:18:57.427Z,21.62
2022-12-23T07:22:00.393Z,19.77
2022-12-23T07:25:04.019Z,20.95
2022-12-23T07:28:07.304Z,21.73
2022-12-23T07:31:10.954Z,21.80
2022-12-23T07:34:13.904Z,21.73
2022-12-23T07:37:17.122Z,20.98
2022-12-23T07:40:20.346Z,22.17
2022-12-23T07:43:23.627Z,21.25
2022-12-23T07:46:26.595Z,24.35
2022-12-23T07:49:29.978Z,23.27
2022-12-23T07:52:32.964Z,23.05
2022-12-23T07:55:36.765Z,23.17
2022-12-23T07:58:40.807Z,24.20
2022-12-23T08:01:44.404Z,23.52
2022-12-23T08:04:47.709Z,21.42
2022-12-23T08:07:52.147Z,22.20
2022-12-23T08:11:03.969Z,19.42
2022-12-23T08:14:08.356Z,20.42
2022-12-23T08:17:12.513Z,23.12
2022-12-23T08:20:15.622Z,23.55
2022-12-23T08:23:24.585Z,22.52
2022-12-23T08:26:27.927Z,24.02
2022-12-23T08:29:36.256Z,21.27
2022-12-23T08:32:39.552Z,21.33
2022-12-23T08:35:43.942Z,19.75
2022-12-23T08:38:47.113Z,19.55
2022-12-23T08:41:51.465Z,18.33
2022-12-23T08:44:54.528Z,19.77
2022-12-23T08:47:57.806Z,19.17
2022-12-23T08:51:06.377Z,17.00
2022-12-23T08:54:10.383Z,17.50
2022-12-23T08:57:13.361Z,17.20
2022-12-23T09:00:16.787Z,15.82
2022-12-23T09:03:19.809Z,16.85
2022-12-23T09:06:29.885Z,19.05
2022-12-23T09:09:33.528Z,19.15
2022-12-23T09:12:36.776Z,19.27
2022-12-23T09:15:44.298Z,19.95
2022-12-23T09:18:47.797Z,19.67
2022-12-23T09:21:50.807Z,19.55
2022-12-23T09:24:59.885Z,20.62
2022-12-23T09:28:09.884Z,20.37
2022-12-23T09:31:13.568Z,20.10
2022-12-23T09:34:16.682Z,19.23
2022-12-23T09:37:20.468Z,20.25
2022-12-23T09:40:23.702Z,19.85
2022-12-23T09:43:39.751Z,20.42
2022-12-23T09:46:50.835Z,19.90
2022-12-23T09:50:02.794Z,19.23
2022-12-23T09:53:08.562Z,18.60
2022-12-23T09:56:36.924Z,19.55
2022-12-23T09:59:49.034Z,16.50
2022-12-23T10:03:04.729Z,14.43
2022-12-23T10:06:20.760Z,14.75
2022-12-23T10:09:23.962Z,15.85
2022-12-23T10:12:40.092Z,14.90
2022-12-23T10:15:47.445Z,16.23
2022-12-23T10:19:04.962Z,15.25
2022-12-23T10:22:43.721Z,17.05
2022-12-23T10:25:52.442Z,15.70
2022-12-23T10:29:00.569Z,15.63
2022-12-23T10:32:31.804Z,16.05
2022-12-23T10:35:45.916Z,14.98
2022-12-23T10:39:20.256Z,14.95
2022-12-23T10:42:31.872Z,13.10
2022-12-23T10:45:47.646Z,13.65
2022-12-23T10:49:04.433Z,12.95
2022-12-23T10:52:21.064Z,15.15
2022-12-23T10:55:34.043Z,15.10
2022-12-23T10:58:41.935Z,12.70
2022-12-23T11:01:48.002Z,15.13
2022-12-23T11:04:51.495Z,14.80
2022-12-23T11:07:55.567Z,14.43
2022-12-23T11:11:01.513Z,14.20
2022-12-23T11:14:05.836Z,13.02
2022-12-23T11:17:25.571Z,12.70
2022-12-23T11:20:28.863Z,12.77
2022-12-23T11:23:36.570Z,13.43
2022-12-23T11:26:39.713Z,12.98
2022-12-23T11:29:49.804Z,15.73
2022-12-23T11:32:52.847Z,14.43
2022-12-23T11:36:08.688Z,15.38
2022-12-23T11:39:23.868Z,15.18
2022-12-23T11:42:30.483Z,14.82
2022-12-23T11:45:36.657Z,14.98
2022-12-23T11:48:40.179Z,14.55
2022-12-23T11:51:47.068Z,14.70
2022-12-23T11:54:57.241Z,15.18
2022-12-23T11:58:06.086Z,14.10
2022-12-23T12:01:17.289Z,14.93
2022-12-23T12:04:22.764Z,16.92
2022-12-23T12:07:26.375Z,19.15
2022-12-23T12:10:33.460Z,17.17
2022-12-23T12:13:44.710Z,14.40
2022-12-23T12:16:58.681Z,15.55
2022-12-23T12:20:18.544Z,16.17
2022-12-23T12:23:27.453Z,16.08
2022-12-23T12:26:33.986Z,16.17
2022-12-23T12:29:40.635Z,15.65
2022-12-23T12:33:21.509Z,15.32
2022-12-23T12:36:27.842Z,15.82
2022-12-23T12:39:38.773Z,14.80
2022-12-23T12:42:47.315Z,16.15
2022-12-23T12:46:06.554Z,15.60
2022-12-23T12:49:24.900Z,17.67
2022-12-23T12:52:28.501Z,21.67
2022-12-23T12:55:42.527Z,21.92
2022-12-23T12:58:46.798Z,22.60
2022-12-23T13:01:57.371Z,19.47
2022-12-23T13:05:28.586Z,17.15
2022-12-23T13:08:31.752Z,17.10
2022-12-23T13:11:54.498Z,17.98
2022-12-23T13:15:03.878Z,17.42
2022-12-23T13:18:37.291Z,17.67
2022-12-23T13:21:47.299Z,16.73
2022-12-23T13:25:18.365Z,17.45
2022-12-23T13:28:42.397Z,19.00
2022-12-23T13:32:18.997Z,16.70
2022-12-23T13:35:32.312Z,17.17
2022-12-23T13:38:47.201Z,19.12
2022-12-23T13:41:52.487Z,19.55
2022-12-23T13:44:56.797Z,18.35
2022-12-23T13:48:18.244Z,17.00
2022-12-23T13:51:27.114Z,17.87
2022-12-23T13:54:39.285Z,18.35
2022-12-23T13:57:54.017Z,16.77
2022-12-23T14:01:03.392Z,16.85
2022-12-23T14:04:32.752Z,17.00
2022-12-23T14:07:35.873Z,17.15
2022-12-23T14:10:39.268Z,16.50
2022-12-23T14:13:51.739Z,17.08
2022-12-23T14:17:07.225Z,17.20
2022-12-23T14:20:18.809Z,17.20
2022-12-23T14:23:27.676Z,18.20
2022-12-23T14:27:01.509Z,20.52
2022-12-23T14:30:17.437Z,21.75
2022-12-23T14:39:32.400Z,22.80
2022-12-23T14:42:42.404Z,20.40
2022-12-23T14:45:45.294Z,20.00
2022-12-23T14:48:48.431Z,21.00
2022-12-23T14:51:51.522Z,20.05
2022-12-23T14:55:27.988Z,20.55
2022-12-23T14:58:17.409Z,21.58
2022-12-23T15:01:32.079Z,24.00
2022-12-23T15:04:56.769Z,25.70
2022-12-23T15:07:59.732Z,25.85
2022-12-23T15:11:02.902Z,25.17
2022-12-23T15:14:11.147Z,25.58
2022-12-23T15:17:18.755Z,23.87
2022-12-23T15:20:26.681Z,24.15
2022-12-23T15:23:29.854Z,27.48
2022-12-23T15:26:33.476Z,25.98
2022-12-23T15:29:36.453Z,27.27
2022-12-23T15:32:42.309Z,24.40
2022-12-23T15:35:46.075Z,23.98
2022-12-23T15:38:49.316Z,22.87
2022-12-23T15:41:52.228Z,24.77
2022-12-23T15:44:55.801Z,25.10
2022-12-23T15:47:58.861Z,26.27
2022-12-23T15:51:50.015Z,25.50
2022-12-23T15:55:03.592Z,26.62
2022-12-23T15:58:06.996Z,26.35
2022-12-23T16:01:15.013Z,24.90
2022-12-23T16:04:28.942Z,22.87
2022-12-23T16:07:32.722Z,24.70
2022-12-23T16:10:36.094Z,24.30
2022-12-23T16:13:43.117Z,25.20
2022-12-23T16:16:52.562Z,23.00
2022-12-23T16:19:58.241Z,23.75
2022-12-23T16:23:03.174Z,23.52
2022-12-23T16:26:06.329Z,23.62
2022-12-23T16:29:10.929Z,25.02
2022-12-23T16:32:17.242Z,26.25
2022-12-23T16:35:36.259Z,21.85
2022-12-23T16:38:39.220Z,26.67
2022-12-23T16:41:42.638Z,26.02
2022-12-23T16:44:45.659Z,24.67
2022-12-23T16:47:49.499Z,21.95
2022-12-23T16:50:52.841Z,18.60
2022-12-23T16:54:00.631Z,17.40
2022-12-23T16:57:03.841Z,17.35
2022-12-23T17:00:07.861Z,17.17
2022-12-23T17:03:17.216Z,16.98
2022-12-23T17:06:21.053Z,16.15
2022-12-23T17:09:24.575Z,16.67
2022-12-23T17:12:28.501Z,23.50
2022-12-23T17:15:31.814Z,18.10
2022-12-23T17:18:35.567Z,14.65
2022-12-23T17:21:39.891Z,14.98
2022-12-23T17:24:43.206Z,15.25
2022-12-23T17:27:46.294Z,18.98
2022-12-23T17:30:54.698Z,16.87
2022-12-23T17:33:57.789Z,15.27
2022-12-23T17:37:02.112Z,14.13
2022-12-23T17:40:05.751Z,15.20
2022-12-23T17:43:16.508Z,16.50
2022-12-23T17:46:19.573Z,19.05
2022-12-23T17:49:22.717Z,20.62
2022-12-23T17:52:25.451Z,25.95
2022-12-23T17:55:29.412Z,21.60
2022-12-23T17:58:32.288Z,20.90
2022-12-23T18:01:35.693Z,19.23
2022-12-23T18:04:39.715Z,19.08
2022-12-23T18:07:42.703Z,16.73
2022-12-23T18:10:46.205Z,15.27
2022-12-23T18:13:51.664Z,13.70
2022-12-23T18:16:55.800Z,13.90
2022-12-23T18:19:58.963Z,13.40
2022-12-23T18:23:03.027Z,12.90
2022-12-23T18:26:06.139Z,11.75
2022-12-23T18:29:09.385Z,11.12
2022-12-23T18:32:19.754Z,10.35
2022-12-23T18:35:31.770Z,10.05
2022-12-23T18:38:35.134Z,12.95
2022-12-23T18:41:38.341Z,13.40
2022-12-23T18:44:42.877Z,13.52
2022-12-23T18:47:46.519Z,16.55
2022-12-23T18:50:49.619Z,15.95
2022-12-23T18:53:52.873Z,15.00
2022-12-23T18:56:55.959Z,13.82
2022-12-23T18:59:59.230Z,12.55
2022-12-23T19:03:02.497Z,23.52
2022-12-23T19:06:07.860Z,29.65
2022-12-23T19:09:19.707Z,23.33
2022-12-23T19:12:23.085Z,14.57
2022-12-23T19:15:26.811Z,11.90
2022-12-23T19:18:30.085Z,15.10
2022-12-23T19:21:33.562Z,11.45
2022-12-23T19:24:42.522Z,25.90
2022-12-23T19:27:55.393Z,30.00
2022-12-23T19:30:58.667Z,30.88
2022-12-23T19:34:01.909Z,29.23
2022-12-23T19:37:05.309Z,25.00
2022-12-23T19:40:09.157Z,21.55
2022-12-23T19:43:12.740Z,25.50
2022-12-23T19:46:17.014Z,27.13
2022-12-23T19:49:20.631Z,29.65
2022-12-23T19:52:23.624Z,25.60
2022-12-23T19:55:27.001Z,20.95
2022-12-23T19:58:35.875Z,21.73
2022-12-23T20:01:39.516Z,22.95
2022-12-23T20:04:43.621Z,25.00
2022-12-23T20:07:47.543Z,23.52
2022-12-23T20:10:52.616Z,25.97
2022-12-23T20:13:56.161Z,30.93
2022-12-23T20:17:00.357Z,28.80
2022-12-23T20:20:03.817Z,28.87
2022-12-23T20:23:07.436Z,28.85
2022-12-23T20:26:12.438Z,29.58
2022-12-23T20:29:16.109Z,29.00
2022-12-23T20:32:19.824Z,27.55
2022-12-23T20:35:23.323Z,25.95
2022-12-23T20:38:26.239Z,24.48
2022-12-23T20:41:31.301Z,22.00
2022-12-23T20:44:36.035Z,20.27
2022-12-23T20:50:43.589Z,16.67
2022-12-23T20:53:47.374Z,17.25
2022-12-23T20:56:50.645Z,53.10
2022-12-23T20:59:54.194Z,51.37
2022-12-23T21:02:57.971Z,44.47
2022-12-23T21:06:01.341Z,29.98
2022-12-23T21:09:06.962Z,20.05
2022-12-23T21:12:10.597Z,27.20
2022-12-23T21:15:13.626Z,36.60
2022-12-23T21:18:17.428Z,40.70
2022-12-23T21:21:22.404Z,40.20
2022-12-23T21:27:28.677Z,28.92
2022-12-23T21:30:31.847Z,24.92
2022-12-23T21:33:39.650Z,23.35
2022-12-23T21:36:43.133Z,16.80
2022-12-23T21:39:46.131Z,15.95
2022-12-23T21:42:49.579Z,16.87
2022-12-23T21:45:59.732Z,14.90
2022-12-23T21:49:03.072Z,16.23
2022-12-23T21:52:06.013Z,14.63
2022-12-23T21:55:09.625Z,14.85
2022-12-23T21:58:13.072Z,15.38
2022-12-23T22:01:20.854Z,15.88
2022-12-23T22:04:24.207Z,13.93
2022-12-23T22:07:27.177Z,14.55
2022-12-23T22:10:31.035Z,14.75
2022-12-23T22:13:33.957Z,16.20
2022-12-23T22:16:37.940Z,18.45
2022-12-23T22:19:41.250Z,16.70
2022-12-23T22:22:44.637Z,18.42
2022-12-23T22:25:54.867Z,15.55
2022-12-23T22:29:00.474Z,14.30
2022-12-23T22:35:06.875Z,16.25
2022-12-23T22:38:10.172Z,17.62
2022-12-23T22:41:15.662Z,22.33
2022-12-23T22:44:19.482Z,36.58
2022-12-23T22:47:22.835Z,40.78
2022-12-23T22:50:26.000Z,34.95
2022-12-23T22:53:29.947Z,34.90
2022-12-23T22:56:33.053Z,26.27
2022-12-23T22:59:36.367Z,35.65
2022-12-23T23:02:39.408Z,23.33
2022-12-23T23:05:42.754Z,23.95
2022-12-23T23:08:46.947Z,23.92
2022-12-23T23:11:50.352Z,23.00
2022-12-23T23:14:53.650Z,22.23
2022-12-23T23:17:56.965Z,22.30
2022-12-23T23:21:00.180Z,24.17
2022-12-23T23:24:04.689Z,24.98
2022-12-23T23:27:07.667Z,23.62
2022-12-23T23:30:11.137Z,24.15
2022-12-23T23:33:14.169Z,24.05
2022-12-23T23:36:17.456Z,23.95
2022-12-23T23:39:20.423Z,24.40
2022-12-23T23:42:23.844Z,24.30
2022-12-23T23:45:27.673Z,23.75
2022-12-23T23:48:31.011Z,24.73
2022-12-23T23:51:35.102Z,24.55
2022-12-23T23:54:39.830Z,24.93
2022-12-23T23:57:42.732Z,23.63
